createdAt,value
2018-04-12T00:01:30.922Z,12.00
2018-04-12T00:03:58.486Z,11.90
2018-04-12T00:06:26.050Z,11.80
2018-04-12T00:08:53.664Z,11.90
2018-04-12T00:11:21.220Z,11.90
2018-04-12T00:13:49.535Z,11.80
2018-04-12T00:16:17.136Z,11.90
2018-04-12T00:18:44.676Z,11.80
2018-04-12T00:21:12.314Z,11.80
2018-04-12T00:23:40.670Z,11.80
2018-04-12T00:26:10.239Z,11.70
2018-04-12T00:28:39.701Z,11.70
2018-04-12T00:31:08.052Z,11.70
2018-04-12T00:33:35.652Z,11.70
2018-04-12T00:36:03.215Z,11.60
2018-04-12T00:38:31.533Z,11.60
2018-04-12T00:40:59.072Z,11.60
2018-04-12T00:43:26.636Z,11.60
2018-04-12T00:45:54.167Z,11.50
2018-04-12T00:48:22.506Z,11.50
2018-04-12T00:50:50.049Z,11.50
2018-04-12T00:53:29.473Z,11.50
2018-04-12T00:55:57.020Z,11.50
2018-04-12T00:58:24.571Z,11.40
2018-04-12T01:00:52.168Z,11.40
2018-04-12T01:03:19.715Z,11.30
2018-04-12T01:05:47.273Z,11.40
2018-04-12T01:08:14.817Z,11.40
2018-04-12T01:10:42.450Z,11.30
2018-04-12T01:13:09.993Z,11.30
2018-04-12T01:15:37.574Z,11.30
2018-04-12T01:18:05.120Z,11.30
2018-04-12T01:20:32.668Z,11.20
2018-04-12T01:23:00.219Z,11.20
2018-04-12T01:25:27.802Z,11.20
2018-04-12T01:27:55.354Z,11.20
2018-04-12T01:30:22.911Z,11.10
2018-04-12T01:35:51.400Z,11.10
2018-04-12T01:38:18.928Z,11.10
2018-04-12T01:40:46.505Z,11.10
2018-04-12T01:43:14.064Z,11.00
2018-04-12T01:45:41.640Z,11.00
2018-04-12T01:48:09.207Z,11.10
2018-04-12T01:50:36.760Z,11.00
2018-04-12T01:53:04.330Z,10.90
2018-04-12T01:55:31.883Z,11.00
2018-04-12T01:57:59.442Z,10.90
2018-04-12T02:00:26.985Z,10.90
2018-04-12T02:02:54.543Z,10.90
2018-04-12T02:05:22.122Z,10.90
2018-04-12T02:07:49.684Z,10.90
2018-04-12T02:10:17.224Z,10.90
2018-04-12T02:12:44.781Z,10.90
2018-04-12T02:15:12.328Z,10.80
2018-04-12T02:17:39.931Z,10.80
2018-04-12T02:20:07.483Z,10.80
2018-04-12T02:22:35.060Z,10.80
2018-04-12T02:25:02.636Z,10.80
2018-04-12T02:27:30.188Z,10.80
2018-04-12T02:29:57.744Z,10.80
2018-04-12T02:32:25.379Z,10.80
2018-04-12T02:34:52.939Z,10.90
2018-04-12T02:37:20.482Z,10.90
2018-04-12T02:39:48.058Z,10.90
2018-04-12T02:42:15.607Z,10.90
2018-04-12T02:44:43.207Z,10.90
2018-04-12T02:47:10.751Z,10.90
2018-04-12T02:49:38.287Z,10.90
2018-04-12T02:52:05.846Z,10.80
2018-04-12T02:54:33.387Z,10.80
2018-04-12T02:57:01.741Z,10.80
2018-04-12T02:59:29.291Z,10.80
2018-04-12T03:01:57.622Z,10.70
2018-04-12T03:04:25.179Z,10.70
2018-04-12T03:06:52.747Z,10.70
2018-04-12T03:09:20.320Z,10.70
2018-04-12T03:11:47.887Z,10.70
2018-04-12T03:14:15.435Z,10.70
2018-04-12T03:16:43.104Z,10.70
2018-04-12T03:19:10.661Z,10.60
2018-04-12T03:21:38.229Z,10.60
2018-04-12T03:24:05.775Z,10.60
2018-04-12T03:26:33.345Z,10.60
2018-04-12T03:29:00.909Z,10.50
2018-04-12T03:31:28.567Z,10.50
2018-04-12T03:33:56.126Z,10.50
2018-04-12T03:36:23.792Z,10.50
2018-04-12T03:38:51.355Z,10.40
2018-04-12T03:41:18.936Z,10.40
2018-04-12T03:43:46.496Z,10.30
2018-04-12T03:46:14.053Z,10.30
2018-04-12T03:48:41.658Z,10.40
2018-04-12T03:51:09.967Z,10.30
2018-04-12T03:53:37.529Z,10.30
2018-04-12T03:56:05.218Z,10.30
2018-04-12T03:58:32.858Z,10.30
2018-04-12T04:01:00.406Z,10.30
2018-04-12T04:03:27.978Z,10.20
2018-04-12T04:05:55.533Z,10.20
2018-04-12T04:08:23.115Z,10.20
2018-04-12T04:10:50.662Z,10.20
2018-04-12T04:13:18.213Z,10.20
2018-04-12T04:15:57.766Z,10.10
2018-04-12T04:18:37.325Z,10.10
2018-04-12T04:21:11.330Z,10.10
2018-04-12T04:23:38.914Z,10.10
2018-04-12T04:26:06.458Z,10.10
2018-04-12T04:28:33.999Z,10.10
2018-04-12T04:31:01.576Z,10.10
2018-04-12T04:33:29.111Z,10.10
2018-04-12T04:35:56.694Z,10.00
2018-04-12T04:38:24.236Z,10.00
2018-04-12T04:40:51.799Z,10.00
2018-04-12T04:43:19.366Z,10.00
2018-04-12T04:45:47.030Z,10.00
2018-04-12T04:48:14.615Z,10.10
2018-04-12T04:50:42.187Z,10.10
2018-04-12T04:53:09.726Z,10.20
2018-04-12T04:55:37.345Z,10.20
2018-04-12T04:58:04.899Z,10.20
2018-04-12T05:00:32.440Z,10.30
2018-04-12T05:03:00.776Z,10.90
2018-04-12T05:05:28.325Z,10.90
2018-04-12T05:07:55.885Z,11.10
2018-04-12T05:10:23.444Z,11.20
2018-04-12T05:12:51.010Z,11.20
2018-04-12T05:15:18.560Z,11.30
2018-04-12T05:17:46.127Z,11.30
2018-04-12T05:20:13.681Z,11.20
2018-04-12T05:22:41.260Z,11.40
2018-04-12T05:25:08.809Z,11.60
2018-04-12T05:27:36.393Z,11.90
2018-04-12T05:30:03.952Z,12.00
2018-04-12T05:32:31.530Z,12.40
2018-04-12T05:34:59.072Z,12.60
2018-04-12T05:37:26.628Z,12.70
2018-04-12T05:39:54.193Z,12.60
2018-04-12T05:42:21.766Z,13.10
2018-04-12T05:44:49.326Z,13.10
2018-04-12T05:47:16.886Z,13.10
2018-04-12T05:49:44.464Z,13.20
2018-04-12T05:52:12.028Z,13.40
2018-04-12T05:54:39.642Z,13.50
2018-04-12T05:57:07.978Z,13.60
2018-04-12T05:59:36.305Z,13.80
2018-04-12T06:02:03.878Z,13.80
2018-04-12T06:04:31.468Z,14.00
2018-04-12T06:06:59.781Z,14.20
2018-04-12T06:09:27.348Z,14.20
2018-04-12T06:11:54.892Z,14.70
2018-04-12T06:14:22.456Z,15.00
2018-04-12T06:16:50.005Z,14.90
2018-04-12T06:19:17.587Z,14.70
2018-04-12T06:21:45.128Z,15.10
2018-04-12T06:24:12.704Z,15.10
2018-04-12T06:26:40.264Z,14.90
2018-04-12T06:29:07.828Z,15.00
2018-04-12T06:31:35.367Z,15.30
2018-04-12T06:34:02.941Z,15.40
2018-04-12T06:36:30.476Z,15.10
2018-04-12T06:38:58.800Z,14.70
2018-04-12T06:41:26.369Z,14.60
2018-04-12T06:43:53.933Z,14.80
2018-04-12T06:46:21.637Z,15.00
2018-04-12T06:48:49.248Z,15.10
2018-04-12T06:51:16.830Z,15.00
2018-04-12T06:53:44.367Z,15.30
2018-04-12T06:56:11.928Z,15.50
2018-04-12T06:58:39.482Z,15.60
2018-04-12T07:01:07.040Z,16.10
2018-04-12T07:03:34.593Z,15.90
2018-04-12T07:06:02.161Z,15.60
2018-04-12T07:08:29.742Z,16.30
2018-04-12T07:10:57.290Z,16.10
2018-04-12T07:13:24.833Z,16.20
2018-04-12T07:15:52.401Z,16.40
2018-04-12T07:18:19.957Z,16.20
2018-04-12T07:20:47.569Z,15.60
2018-04-12T07:23:15.107Z,16.10
2018-04-12T07:25:42.688Z,15.60
2018-04-12T07:28:10.244Z,15.60
2018-04-12T07:30:37.816Z,15.10
2018-04-12T07:33:06.245Z,14.40
2018-04-12T07:35:33.812Z,14.40
2018-04-12T07:38:01.383Z,14.50
2018-04-12T07:40:28.939Z,14.30
2018-04-12T07:42:56.481Z,14.30
2018-04-12T07:45:24.053Z,14.30
2018-04-12T07:47:51.599Z,14.30
2018-04-12T07:50:19.267Z,14.30
2018-04-12T07:52:46.813Z,14.30
2018-04-12T07:55:14.364Z,14.60
2018-04-12T07:57:41.908Z,14.70
2018-04-12T08:00:10.215Z,14.60
2018-04-12T08:02:37.772Z,14.50
2018-04-12T08:05:05.317Z,14.60
2018-04-12T08:07:32.877Z,14.60
2018-04-12T08:10:00.454Z,14.90
2018-04-12T08:12:28.041Z,15.70
2018-04-12T08:14:55.594Z,16.20
2018-04-12T08:17:23.156Z,16.10
2018-04-12T08:19:50.695Z,16.90
2018-04-12T08:22:18.273Z,17.10
2018-04-12T08:24:45.829Z,17.00
2018-04-12T08:27:13.389Z,16.80
2018-04-12T08:29:40.947Z,17.00
2018-04-12T08:32:08.507Z,17.40
2018-04-12T08:34:36.044Z,16.90
2018-04-12T08:37:03.621Z,16.40
2018-04-12T08:39:31.160Z,16.40
2018-04-12T08:41:59.569Z,16.40
2018-04-12T08:44:27.125Z,16.40
2018-04-12T08:46:54.684Z,16.60
2018-04-12T08:49:22.223Z,16.90
2018-04-12T08:51:49.837Z,18.00
2018-04-12T08:54:17.376Z,18.40
2018-04-12T08:56:44.952Z,18.70
2018-04-12T08:59:12.594Z,18.60
2018-04-12T09:01:40.165Z,18.40
2018-04-12T09:04:07.717Z,18.60
2018-04-12T09:06:35.311Z,18.40
2018-04-12T09:09:02.848Z,18.00
2018-04-12T09:11:30.397Z,17.80
2018-04-12T09:13:57.958Z,17.60
2018-04-12T09:16:25.506Z,17.30
2018-04-12T09:18:53.091Z,17.40
2018-04-12T09:21:20.636Z,17.70
2018-04-12T09:23:48.196Z,17.80
2018-04-12T09:26:15.739Z,17.80
2018-04-12T09:28:43.310Z,17.70
2018-04-12T09:31:10.867Z,17.80
2018-04-12T09:33:38.429Z,17.90
2018-04-12T09:36:05.989Z,18.00
2018-04-12T09:38:33.549Z,18.00
2018-04-12T09:41:01.089Z,18.00
2018-04-12T09:43:28.660Z,18.00
2018-04-12T09:45:56.435Z,18.10
2018-04-12T09:48:24.031Z,18.10
2018-04-12T09:50:51.875Z,18.20
2018-04-12T09:53:19.435Z,18.60
2018-04-12T09:55:46.986Z,19.20
2018-04-12T09:58:14.605Z,19.30
2018-04-12T10:00:42.924Z,19.00
2018-04-12T10:03:12.455Z,19.00
2018-04-12T10:05:46.604Z,19.20
2018-04-12T10:08:19.985Z,19.20
2018-04-12T10:10:47.529Z,19.70
2018-04-12T10:13:15.079Z,20.10
2018-04-12T10:15:42.731Z,20.80
2018-04-12T10:18:10.324Z,21.30
2018-04-12T10:20:37.856Z,20.80
2018-04-12T10:23:05.416Z,20.20
2018-04-12T10:25:32.973Z,19.80
2018-04-12T10:28:00.546Z,19.80
2018-04-12T10:30:28.098Z,20.70
2018-04-12T10:32:55.693Z,20.70
2018-04-12T10:35:23.385Z,20.60
2018-04-12T10:37:50.966Z,20.40
2018-04-12T10:40:18.524Z,20.10
2018-04-12T10:42:46.059Z,20.30
2018-04-12T10:45:13.681Z,20.40
2018-04-12T10:47:41.267Z,20.50
2018-04-12T10:50:08.825Z,20.30
2018-04-12T10:52:36.390Z,20.40
2018-04-12T10:55:03.947Z,20.10
2018-04-12T10:57:31.517Z,20.10
2018-04-12T10:59:59.850Z,20.00
2018-04-12T11:02:27.397Z,20.00
2018-04-12T11:04:54.976Z,19.90
2018-04-12T11:07:22.523Z,19.90
2018-04-12T11:09:50.094Z,19.90
2018-04-12T11:12:17.653Z,19.90
2018-04-12T11:14:45.218Z,20.30
2018-04-12T11:17:12.771Z,20.90
2018-04-12T11:19:40.339Z,21.80
2018-04-12T11:22:07.895Z,22.30
2018-04-12T11:24:35.452Z,21.90
2018-04-12T11:27:04.005Z,22.10
2018-04-12T11:29:31.607Z,22.30
2018-04-12T11:31:59.160Z,22.30
2018-04-12T11:34:26.749Z,22.90
2018-04-12T11:36:54.382Z,22.90
2018-04-12T11:39:21.940Z,23.00
2018-04-12T11:41:49.505Z,23.20
2018-04-12T11:44:17.077Z,22.60
2018-04-12T11:46:44.664Z,22.20
2018-04-12T11:49:12.225Z,22.50
2018-04-12T11:51:39.791Z,22.80
2018-04-12T11:54:08.113Z,22.80
2018-04-12T11:56:35.725Z,22.80
2018-04-12T11:59:04.017Z,22.60
2018-04-12T12:01:32.340Z,22.60
2018-04-12T12:03:59.894Z,22.60
2018-04-12T12:06:27.449Z,22.70
2018-04-12T12:08:55.024Z,22.70
2018-04-12T12:11:22.580Z,22.80
2018-04-12T12:13:50.104Z,22.80
2018-04-12T12:16:18.444Z,22.80
2018-04-12T12:18:45.985Z,22.80
2018-04-12T12:21:13.548Z,23.00
2018-04-12T12:23:41.128Z,23.10
2018-04-12T12:26:08.707Z,23.00
2018-04-12T12:28:36.281Z,23.00
2018-04-12T12:31:04.615Z,22.70
2018-04-12T12:33:32.166Z,22.70
2018-04-12T12:35:59.724Z,22.60
2018-04-12T12:38:27.275Z,22.50
2018-04-12T12:40:54.866Z,22.80
2018-04-12T12:43:22.453Z,22.80
2018-04-12T12:45:50.780Z,23.10
2018-04-12T12:48:18.343Z,23.10
2018-04-12T12:50:45.947Z,23.20
2018-04-12T12:53:14.273Z,23.10
2018-04-12T12:55:41.837Z,23.10
2018-04-12T12:58:09.375Z,23.20
2018-04-12T13:00:36.986Z,23.30
2018-04-12T13:03:04.535Z,23.20
2018-04-12T13:05:32.085Z,23.10
2018-04-12T13:07:59.649Z,23.30
2018-04-12T13:10:27.197Z,23.30
2018-04-12T13:12:54.769Z,23.00
2018-04-12T13:15:22.312Z,23.10
2018-04-12T13:17:49.873Z,22.80
2018-04-12T13:20:17.414Z,22.90
2018-04-12T13:22:45.749Z,22.90
2018-04-12T13:25:15.293Z,22.90
2018-04-12T13:27:42.861Z,23.00
2018-04-12T13:30:10.418Z,22.90
2018-04-12T13:32:38.737Z,22.50
2018-04-12T13:35:06.284Z,22.50
2018-04-12T13:37:33.921Z,22.60
2018-04-12T13:40:01.466Z,22.60
2018-04-12T13:42:29.792Z,23.00
2018-04-12T13:44:57.338Z,22.90
2018-04-12T13:47:24.896Z,23.00
2018-04-12T13:49:52.424Z,23.10
2018-04-12T13:52:22.692Z,22.70
2018-04-12T13:54:50.250Z,22.70
2018-04-12T13:57:17.812Z,22.70
2018-04-12T13:59:45.351Z,23.00
2018-04-12T14:02:12.904Z,22.80
2018-04-12T14:04:41.318Z,22.70
2018-04-12T14:07:08.899Z,22.70
2018-04-12T14:09:36.431Z,22.80
2018-04-12T14:12:04.000Z,22.80
2018-04-12T14:14:31.546Z,22.90
2018-04-12T14:16:59.117Z,23.00
2018-04-12T14:19:26.661Z,22.90
2018-04-12T14:21:54.235Z,22.70
2018-04-12T14:24:21.827Z,22.60
2018-04-12T14:26:49.368Z,22.50
2018-04-12T14:29:17.018Z,22.50
2018-04-12T14:31:44.549Z,22.60
2018-04-12T14:34:12.860Z,22.50
2018-04-12T14:36:40.414Z,22.50
2018-04-12T14:39:07.979Z,22.40
2018-04-12T16:06:33.520Z,21.40
2018-04-12T16:09:01.152Z,21.30
2018-04-12T16:11:28.716Z,21.30
2018-04-12T16:13:56.252Z,21.20
2018-04-12T16:16:23.813Z,21.20
2018-04-12T16:18:51.361Z,21.10
2018-04-12T16:21:18.981Z,21.10
2018-04-12T16:23:46.522Z,21.00
2018-04-12T16:26:14.109Z,21.00
2018-04-12T16:28:41.663Z,20.90
2018-04-12T16:31:09.230Z,20.90
2018-04-12T16:33:36.787Z,20.80
2018-04-12T16:36:04.340Z,20.80
2018-04-12T16:38:31.879Z,20.80
2018-04-12T16:40:59.466Z,20.80
2018-04-12T16:43:27.015Z,20.60
2018-04-12T16:45:54.649Z,20.50
2018-04-12T16:48:22.192Z,20.50
2018-04-12T16:50:49.781Z,20.40
2018-04-12T16:53:17.353Z,20.40
2018-04-12T16:55:44.998Z,20.30
2018-04-12T16:58:12.553Z,20.30
2018-04-12T17:00:40.131Z,20.20
2018-04-12T17:03:07.754Z,20.20
2018-04-12T17:05:36.092Z,20.10
2018-04-12T17:08:03.651Z,20.10
2018-04-12T17:10:31.232Z,20.10
2018-04-12T17:12:58.795Z,20.00
2018-04-12T17:15:26.356Z,19.90
2018-04-12T17:17:53.959Z,19.80
2018-04-12T17:20:21.522Z,19.80
2018-04-12T17:22:49.086Z,19.80
2018-04-12T17:25:16.634Z,19.80
2018-04-12T17:27:44.202Z,19.70
2018-04-12T17:30:11.741Z,19.70
2018-04-12T17:32:39.324Z,19.60
2018-04-12T17:35:06.869Z,19.60
2018-04-12T17:37:34.447Z,19.60
2018-04-12T17:40:02.023Z,19.50
2018-04-12T17:42:29.658Z,19.40
2018-04-12T17:44:57.340Z,19.30
2018-04-12T17:47:24.915Z,19.40
2018-04-12T17:49:52.473Z,19.30
2018-04-12T17:52:20.048Z,19.30
2018-04-12T17:54:47.612Z,19.30
2018-04-12T17:57:15.277Z,19.30
2018-04-12T17:59:42.828Z,19.10
2018-04-12T18:02:10.396Z,19.10
2018-04-12T18:04:37.960Z,19.10
2018-04-12T18:07:05.526Z,19.00
2018-04-12T18:09:33.064Z,19.10
2018-04-12T18:12:00.656Z,19.00
2018-04-12T18:14:28.197Z,19.00
2018-04-12T18:16:55.766Z,19.00
2018-04-12T18:19:23.304Z,19.00
2018-04-12T18:21:50.964Z,18.90
2018-04-12T18:24:18.540Z,18.90
2018-04-12T18:26:46.167Z,18.80
2018-04-12T18:29:13.779Z,18.90
2018-04-12T18:31:41.370Z,18.80
2018-04-12T18:34:08.996Z,18.80
2018-04-12T18:36:36.541Z,18.80
2018-04-12T18:39:04.114Z,18.80
2018-04-12T18:41:31.653Z,18.80
2018-04-12T18:43:59.246Z,18.70
2018-04-12T18:46:26.799Z,18.60
2018-04-12T18:48:54.368Z,18.60
2018-04-12T18:51:21.942Z,18.70
2018-04-12T18:53:50.286Z,18.70
2018-04-12T18:56:17.876Z,18.70
2018-04-12T18:58:46.235Z,18.50
2018-04-12T19:01:13.788Z,18.60
2018-04-12T19:03:41.367Z,18.60
2018-04-12T19:06:09.013Z,18.50
2018-04-12T19:08:36.588Z,18.60
2018-04-12T19:11:05.954Z,18.50
2018-04-12T19:13:33.535Z,18.50
2018-04-12T19:16:01.913Z,18.60
2018-04-12T19:18:29.540Z,18.60
2018-04-12T19:20:57.081Z,18.60
2018-04-12T19:23:24.646Z,18.60
2018-04-12T19:25:52.201Z,18.60
2018-04-12T19:28:20.547Z,18.50
2018-04-12T19:30:48.089Z,18.40
2018-04-12T19:33:15.670Z,18.40
2018-04-12T19:35:43.216Z,18.30
2018-04-12T19:38:10.769Z,18.30
2018-04-12T19:40:38.342Z,18.30
2018-04-12T19:43:05.889Z,18.30
2018-04-12T19:45:34.247Z,18.30
2018-04-12T19:48:01.795Z,18.20
2018-04-12T19:50:29.351Z,18.20
2018-04-12T19:52:56.901Z,18.20
2018-04-12T19:55:24.476Z,18.10
2018-04-12T19:57:52.016Z,18.20
2018-04-12T20:00:20.341Z,18.10
2018-04-12T20:02:47.894Z,18.10
2018-04-12T20:05:15.474Z,18.00
2018-04-12T20:07:43.029Z,18.00
2018-04-12T20:10:10.606Z,18.00
2018-04-12T20:12:38.160Z,17.90
2018-04-12T20:15:05.725Z,17.90
2018-04-12T20:17:33.288Z,17.90
2018-04-12T20:20:00.869Z,17.90
2018-04-12T20:22:29.167Z,17.80
2018-04-12T20:24:56.726Z,17.80
2018-04-12T20:27:24.263Z,17.80
2018-04-12T20:29:52.595Z,17.60
2018-04-12T20:32:20.131Z,17.60
2018-04-12T20:34:47.714Z,17.60
2018-04-12T20:37:15.253Z,17.50
2018-04-12T20:39:42.813Z,17.50
2018-04-12T20:42:10.359Z,17.50
2018-04-12T20:44:39.678Z,17.50
2018-04-12T20:47:07.211Z,17.40
2018-04-12T20:49:35.509Z,17.30
2018-04-12T20:52:04.325Z,17.30
2018-04-12T20:54:31.917Z,17.20
2018-04-12T20:56:59.501Z,17.20
2018-04-12T20:59:27.836Z,17.10
2018-04-12T21:01:55.396Z,17.10
2018-04-12T21:04:22.949Z,17.20
2018-04-12T21:06:50.523Z,17.10
2018-04-12T21:09:18.081Z,17.10
2018-04-12T21:11:45.654Z,17.10
2018-04-12T21:14:13.198Z,17.10
2018-04-12T21:16:40.757Z,17.00
2018-04-12T21:19:08.324Z,17.00
2018-04-12T21:21:35.896Z,17.00
2018-04-12T21:24:03.455Z,17.00
2018-04-12T21:26:31.040Z,17.00
2018-04-12T21:28:59.360Z,16.90
2018-04-12T21:31:26.919Z,16.90
2018-04-12T21:33:54.477Z,16.90
2018-04-12T21:36:22.052Z,16.80
2018-04-12T21:38:49.583Z,16.80
2018-04-12T21:41:17.143Z,16.80
2018-04-12T21:43:44.694Z,16.80
2018-04-12T21:46:13.030Z,16.70
2018-04-12T21:48:40.604Z,16.70
2018-04-12T21:51:08.175Z,16.80
2018-04-12T21:53:36.480Z,16.60
2018-04-12T21:56:04.049Z,16.70
2018-04-12T21:58:31.597Z,16.60
2018-04-12T22:00:59.171Z,16.50
2018-04-12T22:03:26.719Z,16.50
2018-04-12T22:05:54.263Z,16.50
2018-04-12T22:08:21.840Z,16.50
2018-04-12T22:10:49.401Z,16.40
2018-04-12T22:13:16.966Z,16.40
2018-04-12T22:15:44.512Z,16.40
2018-04-12T22:18:12.849Z,16.40
2018-04-12T22:20:40.394Z,16.40
2018-04-12T22:23:07.999Z,16.40
2018-04-12T22:25:36.320Z,16.40
2018-04-12T22:28:03.893Z,16.40
2018-04-12T22:30:31.451Z,16.30
2018-04-12T22:32:59.036Z,16.40
2018-04-12T22:35:26.596Z,16.40
2018-04-12T22:37:54.164Z,16.40
2018-04-12T22:40:21.712Z,16.40
2018-04-12T22:42:49.277Z,16.30
2018-04-12T22:45:16.836Z,16.30
2018-04-12T22:47:44.423Z,16.30
2018-04-12T22:50:12.736Z,16.30
2018-04-12T22:52:40.324Z,16.30
2018-04-12T22:55:07.883Z,16.30
2018-04-12T22:57:35.457Z,16.20
2018-04-12T23:00:02.996Z,16.30
2018-04-12T23:02:30.558Z,16.20
2018-04-12T23:04:58.117Z,16.30
2018-04-12T23:07:25.696Z,16.30
2018-04-12T23:09:53.338Z,16.20
2018-04-12T23:12:20.888Z,16.30
2018-04-12T23:14:48.430Z,16.30
2018-04-12T23:17:16.020Z,16.20
2018-04-12T23:19:43.557Z,16.20
2018-04-12T23:22:11.097Z,16.20
2018-04-12T23:24:38.697Z,16.20
2018-04-12T23:27:06.243Z,16.20
2018-04-12T23:29:33.799Z,16.10
2018-04-12T23:32:01.335Z,16.10
2018-04-12T23:34:29.694Z,16.00
2018-04-12T23:36:57.229Z,16.00
2018-04-12T23:39:25.589Z,16.00
2018-04-12T23:41:53.142Z,16.00
2018-04-12T23:44:20.737Z,16.00
2018-04-12T23:46:48.287Z,16.00
2018-04-12T23:49:15.897Z,16.00
2018-04-12T23:51:44.205Z,15.90
2018-04-12T23:54:11.779Z,15.90
2018-04-12T23:56:39.316Z,15.90
2018-04-12T23:59:06.892Z,15.90
